Time;durP1;ratioP1;P1;durP2;ratioP2;P2;SDS_P1;SDS_P2;PMS_P1;PMS_P2;Temp;Humidity;BMP_temperature;BMP_pressure;BME280_temperature;BME280_humidity;BME280_pressure;Samples;Min_cycle;Max_cycle;Signal;HPM_P1;HPM_P2
2023/05/19 00:01:36;;;;;;;;;20.67;19.00;;;;;14.55;53.69;101662.84;6107978;23;48360;-84
2023/05/19 00:04:03;;;;;;;;;23.67;19.00;;;;;14.55;53.84;101665.53;6108205;23;45392;-84
2023/05/19 00:06:31;;;;;;;;;20.00;18.33;;;;;14.57;54.24;101663.78;6108302;23;45333;-84
2023/05/19 00:09:00;;;;;;;;;15.67;15.67;;;;;14.58;53.93;101670.97;6133111;23;45527;-84
2023/05/19 00:11:26;;;;;;;;;21.00;21.00;;;;;14.53;53.89;101671.75;6108554;23;48496;-85
2023/05/19 00:13:54;;;;;;;;;20.00;20.00;;;;;14.52;54.46;101664.59;6108607;23;45405;-84
2023/05/19 00:16:21;;;;;;;;;21.33;20.67;;;;;14.48;54.69;101665.41;6108188;23;45775;-84
2023/05/19 00:18:47;;;;;;;;;17.67;16.67;;;;;14.37;54.56;101663.50;6108412;23;45264;-85
2023/05/19 00:21:12;;;;;;;;;20.67;18.33;;;;;14.29;55.86;101666.97;6135194;23;45868;-85
2023/05/19 00:23:39;;;;;;;;;19.33;19.00;;;;;14.30;55.46;101658.97;6110083;23;45600;-85
2023/05/19 00:26:05;;;;;;;;;16.00;15.00;;;;;14.17;55.57;101657.00;6136412;23;45243;-84
2023/05/19 00:28:30;;;;;;;;;19.00;19.00;;;;;14.13;56.63;101649.81;6107840;23;45333;-85
2023/05/19 00:30:55;;;;;;;;;16.00;16.00;;;;;14.09;56.00;101656.88;6107729;23;69099;-84
2023/05/19 00:33:21;;;;;;;;;22.33;18.33;;;;;14.06;56.41;101655.94;6106747;23;45293;-84
2023/05/19 00:35:46;;;;;;;;;19.00;18.00;;;;;14.00;58.40;101660.31;6108534;23;45345;-85
2023/05/19 00:38:12;;;;;;;;;22.67;19.33;;;;;13.92;57.86;101653.97;6108597;23;45601;-84
2023/05/19 00:40:37;;;;;;;;;20.00;18.67;;;;;13.95;57.38;101655.78;6108841;23;48314;-85
2023/05/19 00:43:04;;;;;;;;;19.00;17.33;;;;;13.94;57.74;101654.00;6108630;23;45329;-84
2023/05/19 00:46:12;;;;;;;;;19.67;17.00;;;;;14.06;57.90;101654.19;6134308;23;45323;-85
2023/05/19 00:48:38;;;;;;;;;24.67;20.67;;;;;13.88;57.78;101643.22;6108686;23;45212;-84
2023/05/19 00:51:05;;;;;;;;;13.67;13.67;;;;;13.92;58.30;101639.72;6133911;23;45104;-84
2023/05/19 00:53:34;;;;;;;;;21.33;18.33;;;;;14.00;58.38;101641.59;6108574;23;45678;-85
2023/05/19 00:56:00;;;;;;;;;18.33;18.33;;;;;13.93;58.03;101637.03;6135990;23;45376;-85
2023/05/19 00:58:29;;;;;;;;;23.00;17.33;;;;;13.89;58.38;101635.19;6109708;23;45296;-85
2023/05/19 01:01:02;;;;;;;;;19.00;19.00;;;;;14.01;58.63;101645.16;6109157;23;47588;-84
2023/05/19 01:03:29;;;;;;;;;24.67;22.00;;;;;13.91;58.58;101652.16;6109393;23;45331;-85
2023/05/19 01:05:55;;;;;;;;;13.00;12.33;;;;;13.84;59.10;101644.94;6108284;23;45236;-85
2023/05/19 01:08:20;;;;;;;;;18.00;17.00;;;;;13.78;59.38;101650.19;6108018;23;45269;-85
2023/05/19 01:10:46;;;;;;;;;24.00;21.33;;;;;13.73;59.64;101643.84;6107918;23;46950;-85
2023/05/19 01:13:11;;;;;;;;;20.00;15.00;;;;;13.66;59.93;101642.88;6109025;23;45284;-84
2023/05/19 01:16:00;;;;;;;;;21.00;19.00;;;;;13.71;60.86;101641.16;6107394;23;45288;-85
2023/05/19 01:18:54;;;;;;;;;18.00;16.67;;;;;13.69;59.44;101644.69;6134375;23;45420;-84
2023/05/19 01:21:48;;;;;;;;;21.33;21.33;;;;;13.71;60.05;101634.91;6107381;23;46915;-84
2023/05/19 01:24:48;;;;;;;;;17.67;17.00;;;;;13.65;61.05;101645.50;6134470;23;45397;-85
2023/05/19 01:27:41;;;;;;;;;21.00;19.00;;;;;13.54;60.93;101624.84;5992021;23;45254;-84
2023/05/19 01:30:24;;;;;;;;;21.33;17.00;;;;;13.50;61.79;101631.03;6011088;23;45247;-84
2023/05/19 01:32:54;;;;;;;;;24.00;19.67;;;;;13.32;62.13;101631.63;5989491;23;47048;-84
2023/05/19 01:35:23;;;;;;;;;21.67;17.33;;;;;13.32;62.23;101615.59;5989379;23;45769;-84
2023/05/19 01:37:51;;;;;;;;;18.00;14.00;;;;;13.29;62.10;101620.91;6014567;23;45386;-86
2023/05/19 01:40:18;;;;;;;;;18.00;18.00;;;;;13.27;62.89;101630.63;5994226;23;44808;-84
2023/05/19 01:42:45;;;;;;;;;19.33;17.33;;;;;13.24;62.39;101616.31;5993831;23;46993;-84
2023/05/19 01:45:11;;;;;;;;;23.33;19.67;;;;;13.17;63.30;101618.88;6015694;23;44726;-84
2023/05/19 01:47:42;;;;;;;;;22.33;21.00;;;;;13.23;62.87;101625.19;5991921;23;45395;-85
2023/05/19 01:50:08;;;;;;;;;20.00;17.33;;;;;13.12;63.56;101625.91;6017922;23;45727;-85
2023/05/19 01:52:34;;;;;;;;;21.33;17.33;;;;;13.09;63.86;101627.59;6042361;23;45241;-85
2023/05/19 01:54:59;;;;;;;;;23.00;18.67;;;;;12.99;64.38;101614.09;6042790;23;45415;-84
2023/05/19 01:57:47;;;;;;;;;19.67;17.33;;;;;13.19;64.06;101624.25;6043501;23;45896;-84
2023/05/19 02:00:21;;;;;;;;;21.00;20.00;;;;;13.08;64.66;101628.50;6043649;23;44797;-86
2023/05/19 02:03:00;;;;;;;;;19.33;19.33;;;;;13.19;64.22;101625.16;6043796;23;45487;-85
2023/05/19 02:05:53;;;;;;;;;31.00;25.67;;;;;13.14;64.44;101607.22;6133937;23;45408;-85
2023/05/19 02:08:29;;;;;;;;;17.00;17.00;;;;;13.12;63.83;101619.66;6132397;23;45389;-84
2023/05/19 02:11:01;;;;;;;;;22.00;20.00;;;;;13.26;64.13;101625.25;6131817;23;45641;-83
2023/05/19 02:13:32;;;;;;;;;24.67;20.67;;;;;13.24;64.13;101627.00;6135355;23;45702;-84
2023/05/19 02:16:03;;;;;;;;;18.33;17.00;;;;;13.19;64.03;101618.91;6132967;23;45242;-85
2023/05/19 02:18:29;;;;;;;;;24.67;21.00;;;;;13.11;65.54;101628.53;6132023;23;45383;-85
2023/05/19 02:20:55;;;;;;;;;18.67;17.00;;;;;12.99;64.58;101616.78;6131926;23;45311;-85
2023/05/19 02:23:20;;;;;;;;;23.00;23.00;;;;;12.97;64.85;101614.97;6132453;23;45382;-85
2023/05/19 02:25:46;;;;;;;;;25.67;24.00;;;;;13.02;64.73;101622.16;6132018;23;45457;-84
2023/05/19 02:28:11;;;;;;;;;21.33;20.67;;;;;13.08;64.70;101624.03;6132428;23;45213;-85
2023/05/19 02:30:36;;;;;;;;;22.67;18.67;;;;;13.09;65.04;101625.84;6133273;23;45408;-85
2023/05/19 02:33:05;;;;;;;;;24.00;23.00;;;;;13.05;64.61;101610.66;6135035;23;45352;-85
2023/05/19 02:35:30;;;;;;;;;23.67;19.33;;;;;13.05;65.42;101621.34;6137440;23;45347;-84
2023/05/19 02:37:56;;;;;;;;;24.33;22.00;;;;;12.97;64.98;101618.50;6133451;23;45330;-84
2023/05/19 02:40:24;;;;;;;;;25.00;22.00;;;;;12.90;65.61;101624.59;6133844;23;45498;-84
2023/05/19 02:42:50;;;;;;;;;24.33;20.00;;;;;12.81;65.51;101627.13;6132691;23;47965;-84
2023/05/19 02:45:15;;;;;;;;;25.00;22.00;;;;;12.73;66.56;101618.94;6132983;23;45415;-84
2023/05/19 02:47:41;;;;;;;;;22.00;19.00;;;;;12.67;65.75;101612.59;6134672;23;45342;-85
2023/05/19 02:50:07;;;;;;;;;22.67;22.67;;;;;12.68;66.06;101603.72;6130397;23;45281;-84
2023/05/19 02:52:32;;;;;;;;;24.00;20.67;;;;;12.59;66.94;101601.78;6107611;23;47030;-84
2023/05/19 02:54:58;;;;;;;;;25.67;18.33;;;;;12.63;66.39;101597.41;6134433;23;45187;-84
2023/05/19 02:57:24;;;;;;;;;25.33;22.67;;;;;12.66;66.96;101606.34;6107208;23;45618;-84
2023/05/19 02:59:51;;;;;;;;;27.33;21.00;;;;;12.57;66.74;101601.75;6107971;23;45326;-84
2023/05/19 03:02:16;;;;;;;;;26.00;25.33;;;;;12.57;67.03;101601.75;6108225;23;46902;-85
2023/05/19 03:04:41;;;;;;;;;24.00;22.33;;;;;12.52;67.25;101602.50;6134048;23;45285;-85
2023/05/19 03:07:09;;;;;;;;;22.67;20.33;;;;;12.51;67.27;101606.94;6108669;23;45635;-84
2023/05/19 03:09:36;;;;;;;;;24.33;22.67;;;;;12.60;66.91;101601.81;6108023;23;45443;-85
2023/05/19 03:12:03;;;;;;;;;21.67;20.67;;;;;12.58;67.23;101613.31;6134068;23;45282;-85
2023/05/19 03:14:29;;;;;;;;;28.67;22.67;;;;;12.65;67.22;101609.00;6134928;23;45245;-84
2023/05/19 03:16:58;;;;;;;;;17.67;16.67;;;;;12.61;67.09;101608.94;6108594;23;45197;-85
2023/05/19 03:19:24;;;;;;;;;26.33;23.67;;;;;12.59;67.45;101609.78;6108995;23;45286;-85
2023/05/19 03:21:49;;;;;;;;;26.00;22.33;;;;;12.51;67.76;101612.28;6133504;23;45324;-84
2023/05/19 03:24:15;;;;;;;;;26.33;22.67;;;;;12.52;67.18;101611.44;6106711;23;45655;-84
2023/05/19 03:26:40;;;;;;;;;27.00;25.00;;;;;12.51;68.17;101611.41;6134793;23;45339;-84
2023/05/19 03:29:06;;;;;;;;;25.00;23.00;;;;;12.36;67.87;101601.28;6109480;23;45284;-84
2023/05/19 03:31:32;;;;;;;;;22.67;19.67;;;;;12.37;68.19;101595.09;6107145;23;48340;-85
2023/05/19 03:33:57;;;;;;;;;21.67;19.00;;;;;12.40;68.65;101611.16;6108273;23;45228;-83
2023/05/19 03:36:23;;;;;;;;;26.00;23.33;;;;;12.41;68.64;101605.88;6108391;23;45476;-84
2023/05/19 03:38:48;;;;;;;;;28.00;24.67;;;;;12.32;68.96;101599.44;6134776;23;45242;-84
2023/05/19 03:41:14;;;;;;;;;21.67;19.67;;;;;12.37;68.66;101614.69;6134479;23;46763;-85
2023/05/19 03:43:39;;;;;;;;;23.00;21.33;;;;;12.30;68.92;101611.84;6111903;23;45682;-85
2023/05/19 03:46:05;;;;;;;;;30.67;26.67;;;;;12.35;69.78;101610.19;6136862;23;45293;-85
2023/05/19 03:48:30;;;;;;;;;24.33;23.00;;;;;12.34;69.50;101608.38;6109701;23;45331;-85
2023/05/19 03:50:56;;;;;;;;;25.33;20.00;;;;;12.35;68.64;101615.53;6135030;23;46503;-85
2023/05/19 03:53:22;;;;;;;;;28.33;21.33;;;;;12.30;69.19;101599.44;6109461;23;45704;-84
2023/05/19 03:55:49;;;;;;;;;22.33;21.33;;;;;12.35;69.57;101610.19;6111482;23;45324;-85
2023/05/19 03:58:15;;;;;;;;;23.67;21.00;;;;;12.26;68.84;101600.22;6137012;23;45774;-85
2023/05/19 04:00:41;;;;;;;;;29.67;25.67;;;;;12.29;68.90;101604.72;6135835;23;45481;-85
2023/05/19 04:03:07;;;;;;;;;31.00;27.67;;;;;12.25;69.03;101609.09;6107598;23;45437;-85
2023/05/19 04:05:33;;;;;;;;;24.33;24.33;;;;;12.31;69.19;101613.66;6110330;23;45337;-85
2023/05/19 04:07:58;;;;;;;;;23.67;20.00;;;;;12.38;68.70;101620.91;6108864;23;45737;-84
2023/05/19 04:10:24;;;;;;;;;27.00;23.33;;;;;12.36;68.43;101611.97;6108942;23;47013;-85
2023/05/19 04:12:58;;;;;;;;;21.00;21.00;;;;;12.47;68.87;101620.22;6109752;23;45305;-84
2023/05/19 04:15:23;;;;;;;;;24.33;23.00;;;;;12.29;69.53;101620.72;6111459;23;45326;-84
2023/05/19 04:17:49;;;;;;;;;27.67;27.67;;;;;12.29;69.12;101618.94;6110512;23;44720;-85
2023/05/19 04:20:15;;;;;;;;;25.33;24.33;;;;;12.30;69.57;101611.84;6131152;23;45259;-85
2023/05/19 04:22:40;;;;;;;;;18.00;15.67;;;;;12.23;69.34;101615.25;6108902;23;45302;-85
2023/05/19 04:25:06;;;;;;;;;34.00;28.67;;;;;12.25;69.02;101611.75;6109009;23;53759;-85
2023/05/19 04:27:35;;;;;;;;;29.33;22.33;;;;;12.23;69.44;101615.25;6110273;23;45450;-84
2023/05/19 04:30:01;;;;;;;;;27.00;21.33;;;;;12.26;69.37;101613.56;6136706;23;45423;-85
2023/05/19 04:32:28;;;;;;;;;27.33;22.67;;;;;12.28;69.32;101613.56;6109913;23;45293;-85
2023/05/19 04:34:53;;;;;;;;;29.00;27.00;;;;;12.30;69.02;101614.50;6109651;23;45378;-85
2023/05/19 04:37:19;;;;;;;;;26.00;24.00;;;;;12.32;69.67;101626.09;6109797;23;45264;-85
2023/05/19 04:39:45;;;;;;;;;22.00;22.00;;;;;12.38;69.29;101618.22;6135682;23;45694;-84
2023/05/19 04:42:10;;;;;;;;;26.67;26.33;;;;;12.31;69.20;101619.88;6135603;23;45276;-85
2023/05/19 04:44:39;;;;;;;;;30.33;23.33;;;;;12.37;69.44;101609.34;6110463;23;44748;-85
2023/05/19 04:47:07;;;;;;;;;23.00;21.33;;;;;12.42;69.58;101617.44;6136591;23;45397;-85
2023/05/19 04:49:37;;;;;;;;;30.00;25.00;;;;;12.39;69.77;101628.94;6135221;23;46124;-85
2023/05/19 04:52:05;;;;;;;;;26.67;23.33;;;;;12.44;69.21;101629.03;6127657;23;45388;-86
2023/05/19 04:54:30;;;;;;;;;27.00;24.67;;;;;12.37;69.06;101624.44;6136088;23;45376;-86
2023/05/19 04:56:56;;;;;;;;;24.00;23.00;;;;;12.48;69.66;101638.94;6134583;23;45478;-86
2023/05/19 04:59:22;;;;;;;;;33.33;28.00;;;;;12.49;69.56;101630.03;6136786;23;45349;-86
2023/05/19 05:01:47;;;;;;;;;34.00;28.67;;;;;12.53;69.30;101631.00;6133494;23;45218;-86
2023/05/19 05:04:12;;;;;;;;;30.00;25.00;;;;;12.59;69.55;101637.34;6132167;23;45241;-86
2023/05/19 05:06:39;;;;;;;;;26.33;22.67;;;;;12.67;68.97;101639.28;6133770;23;45609;-86
2023/05/19 05:09:11;;;;;;;;;30.00;24.67;;;;;12.68;68.93;101633.97;6136347;23;45418;-85
2023/05/19 05:11:37;;;;;;;;;26.33;23.00;;;;;12.77;68.56;101635.94;6135397;23;45709;-85
2023/05/19 05:14:02;;;;;;;;;28.67;19.33;;;;;12.74;68.21;101633.19;6136057;23;45314;-85
2023/05/19 05:16:28;;;;;;;;;29.00;22.00;;;;;12.75;68.77;101632.34;6135722;23;45181;-85
2023/05/19 05:18:54;;;;;;;;;26.33;24.67;;;;;12.86;68.69;101636.09;6135762;23;47254;-85
2023/05/19 05:21:21;;;;;;;;;25.67;25.67;;;;;12.91;68.15;101629.09;6135679;23;45308;-85
2023/05/19 05:23:47;;;;;;;;;24.67;23.67;;;;;13.01;68.29;101638.16;6136099;23;45755;-85
2023/05/19 05:26:23;;;;;;;;;26.33;24.00;;;;;13.09;68.03;101627.59;6134556;23;45654;-85
2023/05/19 05:28:49;;;;;;;;;23.00;23.00;;;;;13.11;67.63;101647.22;6135955;23;45370;-85
2023/05/19 05:31:15;;;;;;;;;23.33;22.33;;;;;13.15;67.71;101642.00;6135822;23;45416;-85
2023/05/19 05:33:41;;;;;;;;;26.00;23.33;;;;;13.29;67.33;101646.66;6137360;23;45394;-85
2023/05/19 05:36:08;;;;;;;;;33.00;28.00;;;;;13.40;66.84;101646.00;6139112;23;45388;-85
2023/05/19 05:38:35;;;;;;;;;28.67;26.67;;;;;13.45;66.65;101629.16;6136250;23;48132;-86
2023/05/19 05:41:01;;;;;;;;;24.00;23.67;;;;;13.56;66.48;101636.47;6135630;23;45419;-85
2023/05/19 05:43:27;;;;;;;;;27.33;24.67;;;;;13.71;66.44;101646.50;6135332;23;45906;-85
2023/05/19 05:45:53;;;;;;;;;28.67;27.67;;;;;13.85;65.85;101648.50;6135815;23;45832;-86
2023/05/19 05:48:18;;;;;;;;;28.00;27.33;;;;;13.99;65.28;101649.59;6134518;23;47225;-85
2023/05/19 05:50:58;;;;;;;;;27.33;24.00;;;;;14.18;65.29;101640.06;6131511;23;45355;-86
2023/05/19 05:53:38;;;;;;;;;29.67;24.33;;;;;14.36;64.99;101642.06;6135874;23;45156;-85
2023/05/19 05:56:04;;;;;;;;;20.67;18.00;;;;;14.45;64.74;101658.25;6111418;23;45376;-85
2023/05/19 05:58:31;;;;;;;;;23.33;21.67;;;;;14.53;63.62;101651.22;6110714;23;47970;-86
2023/05/19 06:00:57;;;;;;;;;29.67;25.33;;;;;14.52;63.70;101656.56;6110590;23;45300;-85
2023/05/19 06:03:23;;;;;;;;;26.67;22.33;;;;;14.51;63.37;101652.97;6138428;23;45368;-85
2023/05/19 06:05:48;;;;;;;;;27.67;25.00;;;;;14.51;63.17;101652.09;6111181;23;44789;-85
2023/05/19 06:08:16;;;;;;;;;27.00;23.00;;;;;14.74;63.23;101655.06;6138083;23;45300;-84
2023/05/19 06:10:42;;;;;;;;;25.00;23.33;;;;;14.82;62.72;101648.00;6110863;23;45513;-84
2023/05/19 06:13:07;;;;;;;;;24.00;24.00;;;;;14.96;62.37;101646.38;6136819;23;45385;-85
2023/05/19 06:15:33;;;;;;;;;25.00;21.33;;;;;15.15;61.83;101651.97;6110751;23;45699;-85
2023/05/19 06:17:58;;;;;;;;;31.00;28.00;;;;;15.26;61.82;101639.53;6112141;23;47183;-86
2023/05/19 06:20:23;;;;;;;;;29.33;27.67;;;;;15.38;60.87;101649.47;6139076;23;45523;-85
2023/05/19 06:22:49;;;;;;;;;29.67;26.67;;;;;15.35;61.13;101645.00;6111147;23;45453;-85
2023/05/19 06:25:14;;;;;;;;;24.67;22.00;;;;;15.48;61.00;101650.47;6114227;23;45392;-85
2023/05/19 06:27:40;;;;;;;;;24.33;22.00;;;;;15.56;60.76;101651.41;6137584;23;45571;-85
2023/05/19 06:30:07;;;;;;;;;26.33;21.33;;;;;15.50;60.30;101651.38;6138873;23;44753;-85
2023/05/19 06:32:33;;;;;;;;;26.67;25.00;;;;;15.62;60.36;101654.16;6113215;23;45212;-85
2023/05/19 06:34:58;;;;;;;;;28.67;24.33;;;;;15.75;60.24;101653.41;6138573;23;45076;-85
2023/05/19 06:37:24;;;;;;;;;25.00;22.33;;;;;15.80;59.91;101638.22;6089929;23;47275;-86
2023/05/19 06:39:52;;;;;;;;;18.67;15.67;;;;;16.05;59.77;101645.53;6139311;23;44597;-84
2023/05/19 06:42:21;;;;;;;;;26.67;25.00;;;;;16.10;59.26;101638.44;6119022;23;45390;-85
2023/05/19 06:44:48;;;;;;;;;26.33;24.33;;;;;16.19;59.50;101639.34;6087480;23;44790;-85
2023/05/19 06:47:14;;;;;;;;;27.67;24.33;;;;;16.32;59.38;101640.31;6112132;23;47235;-86
2023/05/19 06:49:40;;;;;;;;;26.00;21.00;;;;;16.47;58.80;101641.28;6113390;23;45595;-85
2023/05/19 06:52:05;;;;;;;;;25.00;23.33;;;;;16.64;57.85;101646.69;6114035;23;45382;-85
2023/05/19 06:54:31;;;;;;;;;22.33;18.67;;;;;16.73;57.79;101649.44;6137363;23;44794;-86
2023/05/19 06:56:59;;;;;;;;;26.33;26.33;;;;;16.92;57.66;101645.91;6137484;23;48214;-86
2023/05/19 06:59:25;;;;;;;;;21.33;21.33;;;;;16.78;57.24;101632.44;6136693;23;45258;-86
2023/05/19 07:01:50;;;;;;;;;29.00;25.33;;;;;16.83;56.67;101631.59;6139175;23;45400;-85
2023/05/19 07:04:15;;;;;;;;;27.67;24.00;;;;;16.86;56.66;101640.53;6137907;23;44708;-85
2023/05/19 07:06:41;;;;;;;;;28.00;25.67;;;;;16.91;55.46;101638.75;6136996;23;46847;-85
2023/05/19 07:09:07;;;;;;;;;29.33;25.67;;;;;16.71;55.54;101618.97;6137050;23;45315;-85
2023/05/19 07:11:33;;;;;;;;;24.67;23.00;;;;;16.62;56.08;101629.69;6139364;23;45209;-85
2023/05/19 07:14:01;;;;;;;;;23.33;21.00;;;;;16.72;56.40;101624.34;6137324;23;45323;-86
2023/05/19 07:16:26;;;;;;;;;29.67;26.33;;;;;16.76;55.67;101617.19;6136600;23;45647;-86
2023/05/19 07:18:51;;;;;;;;;24.00;20.67;;;;;16.81;55.88;101615.47;6138760;23;45398;-85
2023/05/19 07:21:17;;;;;;;;;21.33;21.33;;;;;16.99;54.89;101625.34;6137352;23;44842;-85
2023/05/19 07:23:42;;;;;;;;;27.00;25.00;;;;;17.07;55.12;101620.88;6139433;23;45621;-86
2023/05/19 07:26:08;;;;;;;;;23.00;23.00;;;;;17.17;55.05;101625.38;6140220;23;45342;-86
2023/05/19 07:28:33;;;;;;;;;23.33;20.00;;;;;17.30;54.85;101626.25;6136166;23;45430;-86
2023/05/19 07:30:59;;;;;;;;;22.33;20.00;;;;;17.29;54.15;101620.88;6136158;23;45437;-85
2023/05/19 07:33:25;;;;;;;;;20.00;19.33;;;;;17.21;54.61;101626.28;6138154;23;45708;-85
2023/05/19 07:35:51;;;;;;;;;22.67;21.67;;;;;17.33;53.53;101625.38;6137995;23;46707;-85
2023/05/19 07:38:17;;;;;;;;;24.00;23.67;;;;;17.41;54.26;101623.59;6138893;23;45335;-85
2023/05/19 07:40:45;;;;;;;;;24.67;23.33;;;;;17.54;53.85;101620.00;6140691;23;44796;-84
2023/05/19 07:43:11;;;;;;;;;23.00;23.00;;;;;17.57;53.78;101617.31;6138421;23;44971;-86
2023/05/19 07:45:37;;;;;;;;;21.67;21.33;;;;;17.77;52.84;101625.38;6139211;23;45270;-85
2023/05/19 07:48:03;;;;;;;;;24.33;19.67;;;;;17.62;52.72;101619.09;6137203;23;45749;-86
2023/05/19 07:50:28;;;;;;;;;22.67;21.00;;;;;17.53;52.93;101607.47;6139327;23;45389;-86
2023/05/19 07:52:54;;;;;;;;;23.67;23.33;;;;;17.67;53.65;101610.09;6138930;23;44781;-85
2023/05/19 07:55:21;;;;;;;;;21.33;21.33;;;;;17.87;52.81;101607.41;6114363;23;46808;-87
2023/05/19 07:57:49;;;;;;;;;21.33;19.33;;;;;18.04;51.31;101611.84;6115065;23;45670;-85
2023/05/19 08:00:15;;;;;;;;;19.67;19.67;;;;;18.06;52.59;101616.34;6140147;23;45313;-85
2023/05/19 08:02:40;;;;;;;;;23.00;21.00;;;;;18.17;52.50;101606.44;6139266;23;45274;-86
2023/05/19 08:05:08;;;;;;;;;25.00;24.33;;;;;18.34;51.85;101616.25;6112181;23;46924;-86
2023/05/19 08:07:33;;;;;;;;;18.67;18.67;;;;;18.43;52.27;101597.38;6117121;23;45168;-85
2023/05/19 08:09:58;;;;;;;;;24.00;20.33;;;;;18.51;51.62;101594.63;6111862;23;45350;-86
2023/05/19 08:12:24;;;;;;;;;23.00;20.00;;;;;18.51;51.79;101592.81;6139984;23;44810;-85
2023/05/19 08:14:50;;;;;;;;;21.33;20.33;;;;;18.52;51.55;101601.78;6135200;23;45423;-85
2023/05/19 08:17:18;;;;;;;;;23.00;20.67;;;;;18.57;52.12;101606.25;6139179;23;45369;-85
2023/05/19 08:19:47;;;;;;;;;28.67;21.33;;;;;18.66;51.55;101607.13;6110958;23;45443;-86
2023/05/19 08:22:12;;;;;;;;;21.33;21.33;;;;;18.69;51.25;101605.31;6113107;23;45676;-86
2023/05/19 08:24:38;;;;;;;;;24.00;23.00;;;;;18.78;51.25;101594.50;6111492;23;46537;-85
2023/05/19 08:27:03;;;;;;;;;20.33;19.33;;;;;18.87;50.62;101598.06;6139011;23;45314;-85
2023/05/19 08:29:30;;;;;;;;;26.67;24.33;;;;;18.84;50.72;101598.94;6137091;23;45403;-87
2023/05/19 08:32:21;;;;;;;;;20.00;17.00;;;;;18.94;50.74;101592.59;6115911;23;44881;-86
2023/05/19 08:34:49;;;;;;;;;23.00;20.00;;;;;18.91;50.67;101607.91;6117071;23;47026;-86
2023/05/19 08:37:15;;;;;;;;;22.33;20.00;;;;;18.87;50.88;101598.94;6088912;23;45402;-85
2023/05/19 08:39:47;;;;;;;;;20.00;18.67;;;;;18.95;50.92;101594.41;6140392;23;45609;-86
2023/05/19 08:42:13;;;;;;;;;24.00;19.67;;;;;18.94;50.58;101597.97;6116340;23;45695;-86
2023/05/19 08:44:40;;;;;;;;;22.33;20.00;;;;;18.85;50.54;101557.63;6111946;23;46867;-84
2023/05/19 08:47:11;;;;;;;;;22.00;19.00;;;;;19.10;50.64;101587.09;6109089;23;45285;-84
2023/05/19 08:50:14;;;;;;;;;18.00;17.00;;;;;19.36;50.29;101584.19;6113136;23;45548;-84
2023/05/19 08:53:02;;;;;;;;;23.67;18.67;;;;;19.17;50.01;101543.03;6114980;23;45602;-85
2023/05/19 08:55:40;;;;;;;;;20.33;17.67;;;;;19.31;48.83;101567.13;6093619;23;47358;-86
2023/05/19 08:58:06;;;;;;;;;20.33;20.33;;;;;19.24;48.93;101576.22;6137755;23;44858;-86
2023/05/19 09:00:33;;;;;;;;;20.00;18.00;;;;;19.08;49.14;101562.84;6138972;23;44836;-85
2023/05/19 09:02:59;;;;;;;;;19.33;17.67;;;;;19.25;49.77;101568.13;6138304;23;45212;-85
2023/05/19 09:05:25;;;;;;;;;19.00;15.67;;;;;19.29;49.82;101561.78;6136899;23;45264;-86
2023/05/19 09:07:55;;;;;;;;;16.67;16.00;;;;;19.45;49.36;101569.72;6140015;23;45323;-84
2023/05/19 09:10:22;;;;;;;;;14.67;14.67;;;;;19.62;48.78;101559.66;6113350;23;45488;-85
2023/05/19 09:12:51;;;;;;;;;20.67;16.33;;;;;19.68;48.97;101559.59;6137473;23;45339;-84
2023/05/19 09:15:22;;;;;;;;;11.33;10.67;;;;;19.57;48.40;101553.41;6138762;23;45459;-84
2023/05/19 09:17:50;;;;;;;;;17.33;16.67;;;;;19.56;49.00;101546.22;6134753;23;45403;-85
2023/05/19 09:20:16;;;;;;;;;17.33;16.00;;;;;19.61;47.91;101541.66;6136923;23;45230;-85
2023/05/19 09:22:46;;;;;;;;;14.33;14.33;;;;;19.66;48.60;101539.81;6136458;23;45334;-84
2023/05/19 09:25:33;;;;;;;;;14.33;14.33;;;;;19.70;48.03;101535.28;6135589;23;47042;-85
2023/05/19 09:28:01;;;;;;;;;17.33;17.33;;;;;19.63;47.36;101542.53;6141427;23;45244;-85
2023/05/19 09:30:26;;;;;;;;;18.33;15.67;;;;;19.52;47.29;101560.66;6142638;23;45249;-86
2023/05/19 09:32:52;;;;;;;;;15.00;14.33;;;;;19.51;47.11;101548.06;6137663;23;45403;-86
2023/05/19 09:36:17;;;;;;;;;19.33;16.33;;;;;19.61;46.86;101538.97;6135025;23;47631;-85
2023/05/19 09:38:42;;;;;;;;;14.00;13.00;;;;;19.47;47.02;101535.53;6135776;23;45707;-86
2023/05/19 09:41:13;;;;;;;;;15.00;14.67;;;;;19.50;47.39;101532.81;6138532;23;45417;-85
2023/05/19 09:44:01;;;;;;;;;14.00;12.00;;;;;19.63;45.52;101545.25;6147062;23;44782;-87
2023/05/19 09:46:28;;;;;;;;;15.00;12.33;;;;;19.72;46.43;101531.69;6124578;23;45529;-86
2023/05/19 09:48:59;;;;;;;;;15.67;14.00;;;;;19.69;46.87;101526.31;6142412;23;45266;-86
2023/05/19 09:51:25;;;;;;;;;13.67;12.33;;;;;19.59;47.19;101514.72;6144073;23;45157;-85
2023/05/19 09:54:01;;;;;;;;;16.67;15.33;;;;;19.83;46.53;101533.38;6141523;23;45346;-86
2023/05/19 09:56:41;;;;;;;;;14.00;12.00;;;;;19.67;46.09;101511.91;6141638;23;46783;-86
2023/05/19 09:59:07;;;;;;;;;10.00;10.00;;;;;19.65;46.51;101497.53;6144761;23;44785;-86
2023/05/19 10:01:42;;;;;;;;;11.00;11.00;;;;;19.97;46.66;101537.69;6143592;23;44684;-85
2023/05/19 10:04:10;;;;;;;;;15.00;15.00;;;;;19.92;45.68;101523.38;6144529;23;44729;-85
2023/05/19 10:06:52;;;;;;;;;16.67;13.00;;;;;20.08;46.15;101534.88;6137724;23;45363;-85
2023/05/19 10:09:23;;;;;;;;;14.00;14.00;;;;;19.94;46.15;101499.06;6137147;23;45332;-85
2023/05/19 10:12:03;;;;;;;;;14.00;12.33;;;;;20.03;45.69;101515.13;6136920;23;45318;-85
2023/05/19 10:14:40;;;;;;;;;13.67;12.33;;;;;20.16;46.66;101516.75;6135447;23;44746;-85
2023/05/19 10:17:28;;;;;;;;;12.33;7.33;;;;;20.15;46.17;101500.56;6138112;23;45620;-84
2023/05/19 10:20:36;;;;;;;;;10.00;10.00;;;;;20.33;45.81;101518.34;6097197;23;45440;-85
2023/05/19 10:23:15;;;;;;;;;9.33;8.00;;;;;20.26;44.73;101500.41;6094882;23;44838;-85
2023/05/19 10:26:03;;;;;;;;;10.00;9.00;;;;;20.27;44.92;101529.22;6140335;23;45460;-86
2023/05/19 10:28:53;;;;;;;;;13.67;11.33;;;;;20.14;44.95;101491.59;6140511;23;46677;-85
2023/05/19 10:31:21;;;;;;;;;10.00;9.00;;;;;20.23;44.54;101492.38;6138569;23;45349;-85
2023/05/19 10:34:32;;;;;;;;;16.00;13.67;;;;;20.55;44.90;101514.41;6138361;23;45255;-85
2023/05/19 10:37:30;;;;;;;;;;;;;;;;;;;;;
2023/05/19 10:40:29;;;;;;;;;12.00;12.00;;;;;20.57;44.68;101480.16;6068658;23;74514;-85
2023/05/19 10:43:34;;;;;;;;;13.67;13.67;;;;;20.97;44.30;101511.09;6068119;23;45526;-85
2023/05/19 10:46:05;;;;;;;;;13.00;11.00;;;;;20.77;43.51;101468.16;6077616;23;45397;-84
2023/05/19 10:49:04;;;;;;;;;15.33;15.00;;;;;21.01;42.45;101495.72;6077801;23;44972;-86
2023/05/19 10:52:00;;;;;;;;;12.00;11.33;;;;;20.78;43.59;101469.94;6038880;23;46146;-85
2023/05/19 10:54:42;;;;;;;;;14.00;14.00;;;;;20.91;43.59;101484.16;6022896;23;45451;-85
2023/05/19 10:57:17;;;;;;;;;9.67;9.67;;;;;21.02;42.53;101511.88;6056494;23;44841;-86
2023/05/19 11:00:10;;;;;;;;;10.33;10.33;;;;;20.98;42.83;101502.94;6053282;23;44855;-85
2023/05/19 11:03:13;;;;;;;;;10.67;8.67;;;;;21.05;42.91;101481.22;6050439;23;46981;-85
2023/05/19 11:05:44;;;;;;;;;13.00;12.33;;;;;21.21;42.81;101501.66;6047351;23;44780;-84
2023/05/19 11:08:33;;;;;;;;;12.67;11.00;;;;;21.23;43.40;101486.28;6053325;23;44790;-86
2023/05/19 11:11:15;;;;;;;;;11.00;11.00;;;;;21.31;43.71;101489.75;5969469;23;45635;-84
2023/05/19 11:13:50;;;;;;;;;17.33;17.33;;;;;21.34;43.45;101486.09;6000561;23;47232;-84
2023/05/19 11:16:25;;;;;;;;;12.33;12.33;;;;;21.22;42.80;101473.69;5999908;23;45476;-85
2023/05/19 11:18:57;;;;;;;;;13.00;12.00;;;;;21.36;42.77;101484.25;6026649;23;45321;-84
2023/05/19 11:21:23;;;;;;;;;14.33;14.00;;;;;21.34;41.54;101477.97;6022497;23;45387;-84
2023/05/19 11:23:50;;;;;;;;;12.00;10.67;;;;;21.44;41.57;101485.03;5997601;23;46833;-85
2023/05/19 11:26:41;;;;;;;;;10.00;10.00;;;;;21.62;40.60;101466.66;6026374;23;44768;-85